Time;durP1;ratioP1;P1;durP2;ratioP2;P2;SDS_P1;SDS_P2;PMS_P1;PMS_P2;Temp;Humidity;BMP_temperature;BMP_pressure;BME280_temperature;BME280_humidity;BME280_pressure;Samples;Min_cycle;Max_cycle;Signal;HPM_P1;HPM_P2
2023/04/30 00:00:42;;;;;;;9.13;7.97;;;;;;;7.03;100.00;102175.97;4968407;28;20030;-68
2023/04/30 00:03:08;;;;;;;7.97;7.10;;;;;;;7.02;100.00;102181.00;4968665;28;20034;-68
2023/04/30 00:05:33;;;;;;;8.45;7.65;;;;;;;6.99;100.00;102173.06;4967887;28;20372;-68
2023/04/30 00:07:58;;;;;;;8.75;7.85;;;;;;;6.95;100.00;102178.03;4968404;28;20480;-68
2023/04/30 00:10:24;;;;;;;11.20;7.70;;;;;;;6.91;100.00;102172.53;4968254;28;20033;-68
2023/04/30 00:12:49;;;;;;;8.82;8.00;;;;;;;6.84;100.00;102178.94;4968210;28;20031;-67
2023/04/30 00:15:14;;;;;;;10.52;7.82;;;;;;;6.81;100.00;102173.59;4968062;28;20049;-68
2023/04/30 00:17:40;;;;;;;8.85;7.43;;;;;;;6.73;100.00;102181.69;4967503;28;20101;-68
2023/04/30 00:20:06;;;;;;;8.32;7.53;;;;;;;6.70;100.00;102181.47;4968135;28;20415;-67
2023/04/30 00:22:32;;;;;;;7.80;7.05;;;;;;;6.67;100.00;102181.28;4969726;28;20065;-68
2023/04/30 00:24:57;;;;;;;10.48;8.48;;;;;;;6.63;100.00;102174.13;4971427;28;20034;-67
2023/04/30 00:27:22;;;;;;;10.55;8.20;;;;;;;6.61;100.00;102175.69;4971074;28;20031;-67
2023/04/30 00:29:48;;;;;;;10.07;8.52;;;;;;;6.59;100.00;102182.41;4971207;28;20496;-67
2023/04/30 00:32:13;;;;;;;10.73;8.77;;;;;;;6.56;100.00;102174.47;4971558;28;20018;-68
2023/04/30 00:34:38;;;;;;;11.15;8.10;;;;;;;6.56;100.00;102179.63;4971619;28;20479;-67
2023/04/30 00:37:04;;;;;;;14.68;8.80;;;;;;;6.51;100.00;102174.16;4970813;28;20027;-67
2023/04/30 00:39:29;;;;;;;10.65;9.55;;;;;;;6.47;100.00;102185.94;4970816;28;20173;-68
2023/04/30 00:41:54;;;;;;;10.10;9.02;;;;;;;6.44;100.00;102183.13;4971297;28;20050;-67
2023/04/30 00:44:20;;;;;;;12.35;9.38;;;;;;;6.42;100.00;102178.66;4971179;28;20027;-68
2023/04/30 00:46:45;;;;;;;13.00;9.95;;;;;;;6.41;100.00;102182.00;4971015;28;20019;-68
2023/04/30 00:49:10;;;;;;;11.48;9.63;;;;;;;6.37;100.00;102173.16;4971600;28;20030;-68
2023/04/30 00:51:39;;;;;;;14.13;9.93;;;;;;;6.34;100.00;102190.97;4970472;28;20050;-68
2023/04/30 00:54:06;;;;;;;12.32;9.40;;;;;;;6.32;100.00;102184.81;4970910;28;20073;-67
2023/04/30 00:56:31;;;;;;;11.63;9.18;;;;;;;6.29;100.00;102182.94;4970616;28;20014;-68
2023/04/30 00:58:57;;;;;;;10.45;8.95;;;;;;;6.26;100.00;102176.69;4971147;28;20089;-68
2023/04/30 01:01:24;;;;;;;9.88;8.88;;;;;;;6.24;100.00;102177.44;4970927;28;20030;-67
2023/04/30 01:03:50;;;;;;;10.13;9.07;;;;;;;6.19;100.00;102181.38;4971518;28;20114;-68
2023/04/30 01:06:15;;;;;;;12.52;9.38;;;;;;;6.18;100.00;102179.59;4970286;28;20098;-68
2023/04/30 01:08:40;;;;;;;11.68;9.93;;;;;;;6.16;100.00;102170.88;4970923;28;20382;-68
2023/04/30 01:11:46;;;;;;;11.65;9.05;;;;;;;6.12;100.00;102176.56;4970722;28;20022;-67
2023/04/30 01:14:27;;;;;;;11.48;9.73;;;;;;;6.09;100.00;102166.06;4970049;28;20058;-68
2023/04/30 01:17:07;;;;;;;11.35;10.13;;;;;;;6.06;100.00;102171.88;4970687;28;20456;-68
2023/04/30 01:19:42;;;;;;;10.77;9.70;;;;;;;6.03;100.00;102163.03;4969857;28;20019;-68
2023/04/30 01:22:11;;;;;;;13.63;9.95;;;;;;;6.04;100.00;102164.81;4970431;28;20042;-68
2023/04/30 01:25:21;;;;;;;11.95;9.60;;;;;;;6.05;100.00;102164.94;4970689;28;20027;-67
2023/04/30 01:28:07;;;;;;;12.07;10.82;;;;;;;6.03;100.00;102165.59;4955466;28;20027;-68
2023/04/30 01:30:34;;;;;;;14.50;9.60;;;;;;;6.02;100.00;102167.28;4970850;28;20110;-67
2023/04/30 01:33:00;;;;;;;14.13;10.75;;;;;;;5.99;100.00;102165.34;4970057;28;20033;-68
2023/04/30 01:35:56;;;;;;;12.68;10.27;;;;;;;6.01;100.00;102163.78;4969973;28;20015;-67
2023/04/30 01:38:32;;;;;;;12.90;10.07;;;;;;;6.01;100.00;102166.38;4969945;28;20065;-68
2023/04/30 01:41:09;;;;;;;11.25;9.93;;;;;;;6.01;100.00;102171.50;4969745;28;20023;-67
2023/04/30 01:43:39;;;;;;;12.88;10.27;;;;;;;6.03;100.00;102168.19;4969341;28;20023;-68
2023/04/30 01:46:17;;;;;;;10.40;9.30;;;;;;;6.04;100.00;102169.94;4969611;28;20023;-68
2023/04/30 01:48:52;;;;;;;11.70;10.52;;;;;;;6.07;100.00;102171.09;4969564;28;20038;-67
2023/04/30 01:51:34;;;;;;;13.20;10.23;;;;;;;6.07;100.00;102171.09;4969762;28;20098;-67
2023/04/30 01:54:08;;;;;;;11.65;10.32;;;;;;;6.06;100.00;102173.56;4969894;28;20039;-68
2023/04/30 01:56:40;;;;;;;12.55;10.50;;;;;;;6.03;100.00;102175.91;4969335;28;20026;-68
2023/04/30 01:59:05;;;;;;;13.70;10.35;;;;;;;5.97;100.00;102179.78;4969346;28;20496;-68
2023/04/30 02:01:32;;;;;;;12.18;10.85;;;;;;;5.96;100.00;102166.81;4970169;28;20019;-67
2023/04/30 02:03:58;;;;;;;13.02;10.70;;;;;;;5.96;100.00;102178.00;4969778;28;20031;-67
2023/04/30 02:06:28;;;;;;;13.90;11.63;;;;;;;5.92;100.00;102170.84;4969394;28;20035;-68
2023/04/30 02:08:55;;;;;;;12.82;11.20;;;;;;;5.89;100.00;102173.19;4969845;28;20034;-68
2023/04/30 02:11:23;;;;;;;14.10;11.32;;;;;;;5.86;100.00;102175.56;4969728;28;20022;-68
2023/04/30 02:13:48;;;;;;;12.73;10.65;;;;;;;5.85;100.00;102184.03;4969579;28;20043;-68
2023/04/30 02:16:13;;;;;;;14.93;10.80;;;;;;;5.83;100.00;102185.63;4969194;28;20510;-67
2023/04/30 02:18:38;;;;;;;12.55;10.27;;;;;;;5.80;100.00;102183.72;4968896;28;20054;-68
2023/04/30 02:21:04;;;;;;;13.13;10.23;;;;;;;5.76;100.00;102187.75;4969031;28;20078;-67
2023/04/30 02:23:29;;;;;;;12.65;9.93;;;;;;;5.71;100.00;102175.31;4969264;28;20054;-68
2023/04/30 02:25:54;;;;;;;11.45;9.73;;;;;;;5.67;100.00;102183.63;4969312;28;20423;-67
2023/04/30 02:28:19;;;;;;;12.15;10.00;;;;;;;5.63;100.00;102185.06;4968774;28;20033;-67
2023/04/30 02:30:45;;;;;;;11.98;10.77;;;;;;;5.57;100.00;102180.34;4968742;28;20084;-67
2023/04/30 02:33:11;;;;;;;12.07;10.07;;;;;;;5.55;100.00;102181.00;4969589;28;20054;-68
2023/04/30 02:35:37;;;;;;;11.82;10.60;;;;;;;5.51;100.00;102179.88;4968445;28;20018;-67
2023/04/30 02:38:02;;;;;;;13.82;10.43;;;;;;;5.48;100.00;102174.53;4969360;28;20480;-67
2023/04/30 02:40:27;;;;;;;12.32;10.75;;;;;;;5.41;100.00;102165.47;4968996;28;20025;-68
2023/04/30 02:42:55;;;;;;;12.25;10.85;;;;;;;5.38;100.00;102170.34;4968894;28;20077;-67
2023/04/30 02:45:20;;;;;;;12.35;10.98;;;;;;;5.35;100.00;102180.41;4968586;28;20065;-68
2023/04/30 02:47:46;;;;;;;12.55;10.50;;;;;;;5.34;100.00;102179.53;4968545;28;20022;-67
2023/04/30 02:50:11;;;;;;;12.13;10.82;;;;;;;5.34;100.00;102168.34;4968950;28;20037;-67
2023/04/30 02:52:36;;;;;;;13.25;11.88;;;;;;;5.32;100.00;102175.06;4968753;28;20034;-68
2023/04/30 02:55:01;;;;;;;12.50;10.88;;;;;;;5.31;100.00;102173.28;4968362;28;20093;-67
2023/04/30 02:57:27;;;;;;;17.45;11.75;;;;;;;5.27;100.00;102175.59;4968559;28;20022;-67
2023/04/30 02:59:52;;;;;;;13.93;11.13;;;;;;;5.24;100.00;102172.78;4967472;28;20110;-67
2023/04/30 03:02:20;;;;;;;15.52;12.10;;;;;;;5.25;100.00;102178.84;4969073;28;20024;-67
2023/04/30 03:04:45;;;;;;;15.18;12.43;;;;;;;5.22;100.00;102174.34;4969349;28;20046;-67
2023/04/30 03:07:10;;;;;;;13.32;11.88;;;;;;;5.20;100.00;102169.91;4967667;28;20824;-67
2023/04/30 03:09:36;;;;;;;13.95;12.02;;;;;;;5.19;100.00;102173.22;4968690;28;20476;-67
2023/04/30 03:12:01;;;;;;;13.77;11.82;;;;;;;5.16;100.00;102169.63;4968759;28;20121;-67
2023/04/30 03:14:26;;;;;;;13.68;11.73;;;;;;;5.13;100.00;102168.50;4968621;28;20045;-67
2023/04/30 03:16:51;;;;;;;13.27;11.88;;;;;;;5.09;100.00;102166.50;4968698;28;20030;-68
2023/04/30 03:19:20;;;;;;;15.73;12.02;;;;;;;5.08;100.00;102168.19;4968423;28;20026;-67
2023/04/30 03:21:46;;;;;;;14.80;12.32;;;;;;;5.05;100.00;102161.13;4968338;28;20467;-68
2023/04/30 03:24:11;;;;;;;14.02;10.88;;;;;;;5.05;100.00;102165.38;4968683;28;20102;-68
2023/04/30 03:26:36;;;;;;;12.63;11.30;;;;;;;5.02;100.00;102166.03;4968653;28;20463;-67
2023/04/30 03:29:02;;;;;;;12.20;10.90;;;;;;;5.01;100.00;102169.38;4968252;28;20073;-67
2023/04/30 03:31:27;;;;;;;13.30;11.25;;;;;;;4.99;100.00;102165.81;4968696;28;20027;-67
2023/04/30 03:33:52;;;;;;;11.80;10.52;;;;;;;4.97;100.00;102172.50;4967583;28;20033;-68
2023/04/30 03:36:17;;;;;;;13.90;11.25;;;;;;;4.97;100.00;102171.59;4968378;28;20034;-67
2023/04/30 03:38:43;;;;;;;12.40;11.10;;;;;;;4.93;100.00;102166.22;4968323;28;20038;-68
2023/04/30 03:41:08;;;;;;;12.18;10.80;;;;;;;4.91;100.00;102161.75;4968459;28;20026;-67
2023/04/30 03:43:33;;;;;;;13.43;11.40;;;;;;;4.88;100.00;102169.22;4968269;28;20380;-67
2023/04/30 03:45:59;;;;;;;14.80;10.93;;;;;;;4.84;100.00;102174.91;4967622;28;20084;-67
2023/04/30 03:48:24;;;;;;;13.18;11.50;;;;;;;4.81;100.00;102180.69;4968523;28;20037;-67
2023/04/30 03:50:49;;;;;;;13.23;11.82;;;;;;;4.78;100.00;102183.94;4967266;28;20038;-67
2023/04/30 03:53:15;;;;;;;13.18;11.68;;;;;;;4.77;100.00;102182.13;4967648;28;20027;-68
2023/04/30 03:55:41;;;;;;;15.35;12.73;;;;;;;4.77;100.00;102182.13;4968258;28;20030;-67
2023/04/30 03:58:06;;;;;;;13.77;12.30;;;;;;;4.76;100.00;102182.91;4968689;28;20534;-67
2023/04/30 04:00:32;;;;;;;14.52;13.00;;;;;;;4.73;100.00;102186.94;4970158;28;20040;-67
2023/04/30 04:02:58;;;;;;;15.00;13.38;;;;;;;4.71;100.00;102189.38;4970049;28;20033;-67
2023/04/30 04:05:23;;;;;;;15.30;12.52;;;;;;;4.70;100.00;102187.56;4970130;28;20057;-68
2023/04/30 04:07:48;;;;;;;13.52;11.95;;;;;;;4.70;100.00;102190.13;4969692;28;20023;-67
2023/04/30 04:10:14;;;;;;;15.30;12.88;;;;;;;4.68;100.00;102189.13;4970861;28;20027;-67
2023/04/30 04:12:39;;;;;;;13.63;12.23;;;;;;;4.65;100.00;102187.22;4969820;28;20031;-67
2023/04/30 04:15:05;;;;;;;15.17;13.50;;;;;;;4.66;100.00;102195.78;4970796;28;20042;-67
2023/04/30 04:17:31;;;;;;;14.27;12.88;;;;;;;4.62;100.00;102188.66;4971505;28;20022;-68
2023/04/30 04:19:56;;;;;;;14.75;13.13;;;;;;;4.60;100.00;102190.19;4971288;28;20038;-67
2023/04/30 04:22:21;;;;;;;15.13;13.40;;;;;;;4.59;100.00;102189.28;4971767;28;20038;-67
2023/04/30 04:24:47;;;;;;;16.80;14.20;;;;;;;4.60;100.00;102197.91;4971599;28;20034;-68
2023/04/30 04:27:12;;;;;;;14.25;12.80;;;;;;;4.60;100.00;102190.19;4971561;28;20093;-67
2023/04/30 04:29:37;;;;;;;14.85;13.27;;;;;;;4.60;100.00;102195.34;4971472;28;20278;-67
2023/04/30 04:32:04;;;;;;;15.75;13.88;;;;;;;4.57;100.00;102196.88;4970941;28;20461;-67
2023/04/30 04:34:30;;;;;;;15.00;12.45;;;;;;;4.57;100.00;102189.19;4971542;28;20069;-68
2023/04/30 04:36:57;;;;;;;15.87;13.80;;;;;;;4.59;100.00;102193.56;4971413;28;20471;-67
2023/04/30 04:39:22;;;;;;;16.03;14.23;;;;;;;4.60;100.00;102201.38;4971608;28;20114;-67
2023/04/30 04:41:47;;;;;;;15.67;13.40;;;;;;;4.61;100.00;102195.44;4971735;28;20098;-67
2023/04/30 04:44:12;;;;;;;15.23;13.73;;;;;;;4.63;100.00;102203.28;4971321;28;20030;-67
2023/04/30 04:46:38;;;;;;;15.20;13.60;;;;;;;4.65;100.00;102200.06;4970649;28;20085;-67
2023/04/30 04:49:03;;;;;;;16.20;14.27;;;;;;;4.65;100.00;102205.19;4971093;28;20034;-68
2023/04/30 04:51:29;;;;;;;15.50;13.57;;;;;;;4.66;100.00;102201.84;4971529;28;20034;-67
2023/04/30 04:53:54;;;;;;;16.07;14.37;;;;;;;4.69;100.00;102206.34;4971188;28;20057;-67
2023/04/30 04:56:20;;;;;;;15.65;14.00;;;;;;;4.71;100.00;102211.59;4971254;28;20042;-67
2023/04/30 04:58:46;;;;;;;15.70;13.97;;;;;;;4.73;100.00;102205.78;4970428;28;20546;-67
2023/04/30 05:01:11;;;;;;;17.02;15.18;;;;;;;4.76;100.00;102208.59;4971238;28;20452;-68
2023/04/30 05:03:36;;;;;;;15.30;13.80;;;;;;;4.82;100.00;102207.28;4970959;28;20105;-67
2023/04/30 05:06:03;;;;;;;16.60;14.90;;;;;;;4.86;100.00;102215.34;4970822;28;20093;-67
2023/04/30 05:08:28;;;;;;;16.42;14.02;;;;;;;4.91;100.00;102216.59;4970244;28;20036;-68
2023/04/30 05:10:53;;;;;;;17.40;15.60;;;;;;;4.99;100.00;102211.16;4970914;28;20402;-67
2023/04/30 05:13:19;;;;;;;16.33;14.63;;;;;;;5.07;100.00;102209.19;4971067;28;20037;-67
2023/04/30 05:15:44;;;;;;;17.88;15.77;;;;;;;5.14;100.00;102203.72;4969666;28;20058;-67
2023/04/30 05:18:09;;;;;;;20.20;16.02;;;;;;;5.23;100.00;102206.09;4970816;28;20035;-67
2023/04/30 05:20:35;;;;;;;18.85;16.55;;;;;;;5.28;100.00;102209.91;4970259;28;20034;-67
2023/04/30 05:23:00;;;;;;;19.92;17.88;;;;;;;5.31;100.00;102201.56;4970816;28;20035;-67
2023/04/30 05:25:25;;;;;;;19.67;17.52;;;;;;;5.38;100.00;102202.09;4970611;28;20456;-67
2023/04/30 05:27:51;;;;;;;19.80;17.70;;;;;;;5.44;100.00;102196.53;4970381;28;20045;-67
2023/04/30 05:30:16;;;;;;;19.48;17.45;;;;;;;5.53;100.00;102202.38;4970107;28;20104;-67
2023/04/30 05:32:41;;;;;;;18.30;16.15;;;;;;;5.56;100.00;102195.69;4970511;28;20031;-67
2023/04/30 05:35:07;;;;;;;19.52;17.33;;;;;;;5.65;100.00;102201.47;4970563;28;20033;-68
2023/04/30 05:37:33;;;;;;;18.23;16.42;;;;;;;5.69;100.00;102207.75;4969703;28;20033;-67
2023/04/30 05:39:58;;;;;;;18.90;16.90;;;;;;;5.80;100.00;102212.00;4970505;28;20050;-67
2023/04/30 05:42:23;;;;;;;20.95;16.33;;;;;;;5.85;100.00;102202.06;4970362;28;20402;-67
2023/04/30 05:44:49;;;;;;;17.77;14.88;;;;;;;5.94;100.00;102209.53;4970419;28;20089;-67
2023/04/30 05:47:14;;;;;;;17.98;16.17;;;;;;;6.01;100.00;102202.41;4969872;28;20031;-67
2023/04/30 05:49:40;;;;;;;17.67;15.00;;;;;;;6.13;100.00;102201.53;4970644;28;20058;-68
2023/04/30 05:52:05;;;;;;;16.90;15.13;;;;;;;6.28;100.00;102198.28;4970542;28;20019;-67
2023/04/30 05:54:31;;;;;;;16.55;14.90;;;;;;;6.38;100.00;102198.16;4970151;28;20030;-68
2023/04/30 05:56:56;;;;;;;18.77;15.63;;;;;;;6.52;100.00;102201.69;4970488;28;20081;-67
2023/04/30 05:59:21;;;;;;;16.52;14.55;;;;;;;6.64;100.00;102201.66;4969288;28;20487;-67
2023/04/30 06:01:47;;;;;;;16.45;13.93;;;;;;;6.73;100.00;102206.56;4970183;28;20416;-67
2023/04/30 06:04:12;;;;;;;14.90;13.50;;;;;;;6.84;100.00;102199.56;4969680;28;20101;-67
2023/04/30 06:06:37;;;;;;;13.60;12.40;;;;;;;7.03;100.00;102203.44;4969514;28;20050;-68
2023/04/30 06:09:03;;;;;;;13.73;12.32;;;;;;;7.20;100.00;102199.41;4969496;28;20023;-67
2023/04/30 06:11:29;;;;;;;14.48;13.07;;;;;;;7.32;100.00;102204.53;4970068;28;20029;-67
2023/04/30 06:13:54;;;;;;;16.73;13.50;;;;;;;7.39;100.00;102206.72;4969422;28;20211;-67
2023/04/30 06:16:20;;;;;;;13.30;12.00;;;;;;;7.59;100.00;102203.66;4969348;28;20061;-67
2023/04/30 06:18:45;;;;;;;13.07;11.32;;;;;;;7.69;100.00;102206.06;4969746;28;20101;-68
2023/04/30 06:21:10;;;;;;;11.82;10.60;;;;;;;7.79;100.00;102197.22;4956939;28;20230;-67
2023/04/30 06:23:36;;;;;;;12.25;10.85;;;;;;;7.99;100.00;102200.19;4969105;28;20018;-67
2023/04/30 06:26:02;;;;;;;12.60;11.40;;;;;;;8.12;100.00;102197.63;4962802;28;20093;-67
2023/04/30 06:28:27;;;;;;;13.40;11.20;;;;;;;8.32;100.00;102200.59;4966256;28;20054;-67
2023/04/30 06:30:54;;;;;;;11.50;10.30;;;;;;;8.44;100.00;102194.41;4966896;28;20538;-67
2023/04/30 06:33:19;;;;;;;10.23;9.23;;;;;;;8.69;100.00;102195.97;4966530;28;20440;-67
2023/04/30 06:35:44;;;;;;;12.07;10.95;;;;;;;8.93;100.00;102195.66;4967065;28;20106;-67
2023/04/30 06:38:10;;;;;;;10.90;9.07;;;;;;;9.16;100.00;102198.72;4965617;28;20113;-67
2023/04/30 06:40:35;;;;;;;10.43;9.43;;;;;;;9.22;100.00;102192.25;4966963;28;20019;-67
2023/04/30 06:43:00;;;;;;;10.55;9.43;;;;;;;9.02;100.00;102191.06;4966355;28;20476;-67
2023/04/30 06:45:25;;;;;;;12.68;9.45;;;;;;;9.17;100.00;102197.94;4966798;28;20451;-68
2023/04/30 06:47:52;;;;;;;9.27;8.48;;;;;;;9.29;100.00;102196.09;4967010;28;20494;-67
2023/04/30 06:50:18;;;;;;;11.75;9.25;;;;;;;9.47;100.00;102191.09;4966137;28;20114;-68
2023/04/30 06:52:43;;;;;;;11.25;9.82;;;;;;;9.39;100.00;102196.63;4965941;28;20084;-68
2023/04/30 06:55:08;;;;;;;10.63;9.48;;;;;;;9.42;100.00;102202.88;4966974;28;20061;-67
2023/04/30 06:57:36;;;;;;;10.68;9.68;;;;;;;9.56;100.00;102202.78;4966528;28;20109;-68
2023/04/30 07:00:03;;;;;;;10.48;9.43;;;;;;;9.87;100.00;102206.25;4966623;28;20555;-68
2023/04/30 07:02:28;;;;;;;10.75;8.07;;;;;;;10.12;100.00;102207.63;4965479;28;20039;-68
2023/04/30 07:04:53;;;;;;;9.23;8.30;;;;;;;10.33;100.00;102205.31;4966149;28;20030;-67
2023/04/30 07:07:18;;;;;;;10.25;8.48;;;;;;;10.42;100.00;102211.00;4959944;28;20607;-68
2023/04/30 07:09:44;;;;;;;10.23;9.20;;;;;;;10.73;100.00;102209.22;4965480;28;20077;-68
2023/04/30 07:12:10;;;;;;;9.15;8.35;;;;;;;10.93;100.00;102211.97;4964174;28;20660;-68
2023/04/30 07:14:36;;;;;;;10.50;8.88;;;;;;;11.26;100.00;102217.13;4952876;28;20061;-67
2023/04/30 07:17:01;;;;;;;9.23;8.32;;;;;;;11.46;100.00;102213.78;4965800;28;20043;-68
2023/04/30 07:19:26;;;;;;;8.40;7.38;;;;;;;11.69;100.00;102207.16;4965639;28;20399;-68
2023/04/30 07:21:51;;;;;;;9.52;8.60;;;;;;;11.95;100.00;102211.81;4965383;28;20065;-67
2023/04/30 07:24:17;;;;;;;9.52;8.45;;;;;;;12.23;100.00;102208.84;4964389;28;20039;-67
2023/04/30 07:26:42;;;;;;;8.98;7.97;;;;;;;12.23;100.00;102208.84;4966893;28;20058;-67
2023/04/30 07:29:07;;;;;;;11.68;9.48;;;;;;;12.10;98.40;102204.78;4968727;28;20037;-67
2023/04/30 07:31:33;;;;;;;12.85;10.13;;;;;;;12.47;100.00;102210.81;4969683;28;20038;-67
2023/04/30 07:33:58;;;;;;;10.88;9.23;;;;;;;12.83;100.00;102208.91;4972379;28;20030;-68
2023/04/30 07:36:26;;;;;;;9.90;8.45;;;;;;;13.14;97.16;102206.78;4971872;28;20114;-68
2023/04/30 07:38:51;;;;;;;9.05;8.07;;;;;;;13.35;96.52;102198.97;4972665;28;20034;-68
2023/04/30 07:41:16;;;;;;;9.50;8.50;;;;;;;13.44;93.50;102199.38;4969798;28;20038;-68
2023/04/30 07:43:41;;;;;;;9.88;8.90;;;;;;;13.78;92.63;102188.63;4970426;28;20026;-68
2023/04/30 07:46:07;;;;;;;8.93;8.13;;;;;;;13.85;91.07;102193.22;4971603;28;20081;-68
2023/04/30 07:48:32;;;;;;;9.50;8.50;;;;;;;14.14;92.32;102197.78;4972013;28;20065;-68
2023/04/30 07:50:57;;;;;;;10.15;7.93;;;;;;;14.53;89.09;102201.91;4972068;28;20141;-68
2023/04/30 07:53:23;;;;;;;9.02;8.23;;;;;;;14.58;86.40;102199.44;4970470;28;20030;-68
2023/04/30 07:55:48;;;;;;;9.23;7.55;;;;;;;14.92;87.34;102200.72;4970099;28;20026;-68
2023/04/30 07:58:13;;;;;;;9.10;8.25;;;;;;;15.16;85.41;102198.91;4969534;28;20046;-68
2023/04/30 08:00:39;;;;;;;9.10;8.25;;;;;;;15.28;82.13;102201.94;4970343;28;20033;-68
2023/04/30 08:03:04;;;;;;;9.40;8.40;;;;;;;15.43;80.60;102203.28;4970118;28;20034;-68
2023/04/30 08:05:29;;;;;;;9.65;7.88;;;;;;;15.65;81.08;102198.78;4970698;28;20609;-68
2023/04/30 08:07:55;;;;;;;8.43;7.72;;;;;;;15.69;76.62;102193.69;4970124;28;20241;-68
2023/04/30 08:10:20;;;;;;;9.50;8.35;;;;;;;15.48;78.21;102192.16;4971923;28;20085;-68
2023/04/30 08:12:45;;;;;;;8.80;8.00;;;;;;;15.60;80.17;102211.69;4971362;28;20178;-68
2023/04/30 08:15:11;;;;;;;9.85;8.70;;;;;;;15.52;77.13;102208.84;4971363;28;20066;-68
2023/04/30 08:17:36;;;;;;;9.02;8.18;;;;;;;15.68;77.63;102206.72;4971616;28;20015;-68
2023/04/30 08:20:05;;;;;;;8.35;7.53;;;;;;;15.85;77.62;102205.53;4970594;28;20502;-68
2023/04/30 08:22:31;;;;;;;7.88;7.18;;;;;;;15.96;78.48;102210.19;4971691;28;20053;-68
2023/04/30 08:24:56;;;;;;;9.35;8.40;;;;;;;16.34;78.40;102207.03;4971573;28;20026;-68
2023/04/30 08:27:22;;;;;;;8.50;7.70;;;;;;;16.24;73.76;102207.59;4970169;28;20026;-68
2023/04/30 08:29:47;;;;;;;9.43;8.18;;;;;;;16.47;75.00;102203.03;4971762;28;20101;-68
2023/04/30 08:32:13;;;;;;;8.95;8.15;;;;;;;16.60;72.63;102211.25;4971829;28;20030;-68
2023/04/30 08:34:42;;;;;;;8.40;7.60;;;;;;;16.77;74.91;102207.38;4971641;28;20029;-68
2023/04/30 08:37:07;;;;;;;9.57;8.50;;;;;;;16.75;76.73;102213.41;4971266;28;20033;-68
2023/04/30 08:39:33;;;;;;;9.80;8.90;;;;;;;16.94;75.11;102204.34;4971954;28;20383;-68
2023/04/30 08:42:02;;;;;;;9.00;8.20;;;;;;;17.02;75.34;102201.91;4971804;28;20033;-68
2023/04/30 08:44:29;;;;;;;9.90;8.90;;;;;;;17.00;72.41;102204.50;4971151;28;20022;-68
2023/04/30 08:46:57;;;;;;;10.60;9.63;;;;;;;16.80;72.34;102196.97;4970805;28;20296;-68
2023/04/30 08:49:22;;;;;;;9.63;8.68;;;;;;;16.83;74.24;102201.44;4971424;28;20696;-68
2023/04/30 08:51:48;;;;;;;9.15;8.20;;;;;;;16.69;70.47;102208.91;4970644;28;20122;-68
2023/04/30 08:54:15;;;;;;;8.75;7.70;;;;;;;16.68;71.87;102207.09;4971320;28;20431;-68
2023/04/30 08:56:40;;;;;;;8.38;7.45;;;;;;;16.80;71.78;102204.84;4970831;28;20046;-68
2023/04/30 08:59:06;;;;;;;11.35;7.50;;;;;;;16.66;70.17;102203.56;4959702;28;20119;-68
2023/04/30 09:01:33;;;;;;;8.68;7.25;;;;;;;16.67;69.97;102210.59;4970388;28;20371;-68
2023/04/30 09:03:59;;;;;;;9.82;8.30;;;;;;;16.32;69.34;102199.13;4970996;28;20026;-68
2023/04/30 09:06:24;;;;;;;7.45;6.75;;;;;;;16.31;69.12;102200.00;4971063;28;20014;-68
2023/04/30 09:08:51;;;;;;;8.63;6.57;;;;;;;16.22;71.66;102202.31;4970842;28;20472;-68
2023/04/30 09:11:29;;;;;;;9.13;8.23;;;;;;;16.11;70.88;102196.75;4970997;28;20057;-67
2023/04/30 09:13:56;;;;;;;8.88;7.95;;;;;;;16.36;71.67;102194.00;4970409;28;20031;-67
2023/04/30 09:16:22;;;;;;;10.23;8.43;;;;;;;16.65;72.66;102188.72;4970071;28;20030;-69
2023/04/30 09:18:48;;;;;;;9.20;8.15;;;;;;;16.85;72.44;102186.66;4970531;28;20103;-67
2023/04/30 09:21:13;;;;;;;9.10;7.90;;;;;;;17.08;78.29;102193.34;4970733;28;20109;-67
2023/04/30 09:23:56;;;;;;;7.35;6.65;;;;;;;17.29;74.19;102190.44;4971005;28;20082;-66
2023/04/30 09:26:26;;;;;;;7.75;6.63;;;;;;;17.58;76.01;102182.41;4971033;28;20344;-67
2023/04/30 09:28:56;;;;;;;7.67;6.97;;;;;;;17.49;71.15;102190.94;4984838;28;20597;-67
2023/04/30 09:31:22;;;;;;;6.93;6.23;;;;;;;17.45;70.61;102186.44;4969138;28;20038;-67
2023/04/30 09:33:47;;;;;;;7.65;6.38;;;;;;;17.47;68.53;102194.34;4970137;28;20026;-67
2023/04/30 09:36:12;;;;;;;8.50;6.40;;;;;;;17.61;73.04;102187.72;4970268;28;20103;-67
2023/04/30 09:38:38;;;;;;;7.28;6.40;;;;;;;17.67;70.65;102186.97;4969767;28;20023;-67
2023/04/30 09:41:03;;;;;;;6.70;6.05;;;;;;;17.80;70.82;102182.03;4970402;28;20035;-66
2023/04/30 09:43:30;;;;;;;7.40;6.70;;;;;;;17.91;69.16;102190.13;4969753;28;20019;-67
2023/04/30 09:45:58;;;;;;;7.80;7.05;;;;;;;18.06;70.50;102189.63;4969988;28;20010;-67
2023/04/30 09:48:28;;;;;;;9.30;6.95;;;;;;;17.92;65.98;102187.56;4970043;28;20109;-67
2023/04/30 09:50:54;;;;;;;8.85;7.30;;;;;;;17.94;70.85;102188.47;4969720;28;20415;-67
2023/04/30 09:53:19;;;;;;;8.05;6.20;;;;;;;17.87;68.13;102179.59;4970394;28;20034;-67
2023/04/30 09:55:47;;;;;;;7.68;7.05;;;;;;;17.81;66.31;102178.56;4968888;28;20514;-67
2023/04/30 09:58:13;;;;;;;7.95;6.38;;;;;;;17.67;66.50;102179.13;4970333;28;20503;-67
2023/04/30 10:00:39;;;;;;;6.30;5.78;;;;;;;17.83;68.65;102185.59;4970517;28;20038;-67
2023/04/30 10:03:12;;;;;;;7.20;6.60;;;;;;;17.86;68.75;102179.56;4969792;28;20027;-67
2023/04/30 10:05:47;;;;;;;9.73;7.72;;;;;;;17.88;68.53;102180.50;4969562;28;20105;-67
2023/04/30 10:08:25;;;;;;;9.65;7.75;;;;;;;17.87;71.04;102178.69;4957483;28;20034;-67
2023/04/30 10:10:57;;;;;;;8.23;7.43;;;;;;;17.93;70.71;102173.59;4969526;28;20031;-67
2023/04/30 10:13:28;;;;;;;7.10;6.43;;;;;;;17.82;69.77;102170.75;4970556;28;20062;-66
2023/04/30 10:15:57;;;;;;;;;;;;;;;17.83;70.37;102169.88;4969743;28;20038;-66
2023/04/30 10:18:30;;;;;;;6.28;5.78;;;;;;;17.95;67.88;102174.50;4969007;28;19925;-66
2023/04/30 10:20:56;;;;;;;7.18;6.47;;;;;;;17.90;64.37;102163.03;4969206;28;20023;-66
2023/04/30 10:23:21;;;;;;;7.28;6.50;;;;;;;17.86;67.30;102166.44;4969364;28;20038;-66
2023/04/30 10:25:48;;;;;;;6.70;6.10;;;;;;;17.81;64.84;102157.59;4968947;28;20463;-66
2023/04/30 10:28:13;;;;;;;6.72;6.07;;;;;;;17.93;66.78;102159.59;4984278;28;20034;-66
2023/04/30 10:30:41;;;;;;;7.38;6.70;;;;;;;17.97;64.06;102154.44;4969235;28;20034;-66
2023/04/30 10:33:22;;;;;;;6.63;6.03;;;;;;;17.99;64.87;102163.25;4969092;28;20026;-67
2023/04/30 10:35:52;;;;;;;;;;;;;;;17.96;64.14;102157.94;4966669;28;20030;-66
2023/04/30 10:38:23;;;;;;;5.22;4.78;;;;;;;17.86;59.70;102150.72;4962261;28;19914;-66
2023/04/30 10:40:49;;;;;;;5.93;5.45;;;;;;;17.88;64.09;102149.88;4965921;28;20027;-66
2023/04/30 10:43:18;;;;;;;5.90;5.40;;;;;;;17.67;62.44;102138.91;4967105;28;20039;-66
2023/04/30 10:45:44;;;;;;;6.50;5.78;;;;;;;17.74;64.59;102140.81;4966020;28;20405;-66
2023/04/30 10:48:09;;;;;;;6.47;5.88;;;;;;;17.91;66.36;102135.06;4966802;28;20041;-66
2023/04/30 10:50:42;;;;;;;5.90;5.30;;;;;;;18.00;65.66;102143.16;4965839;28;20026;-66
2023/04/30 10:53:13;;;;;;;6.78;6.05;;;;;;;17.98;63.73;102134.38;4966426;28;20031;-66
2023/04/30 10:55:51;;;;;;;;;;;;;;;17.53;60.83;102126.38;4966863;28;20023;-66
2023/04/30 10:58:30;;;;;;;6.10;5.60;;;;;;;17.29;63.33;102124.94;4966210;28;19910;-66
2023/04/30 11:01:07;;;;;;;6.53;5.93;;;;;;;17.56;67.18;102115.09;4964180;28;20403;-67
2023/04/30 11:03:34;;;;;;;5.32;4.82;;;;;;;17.81;68.88;102113.91;4955021;28;20162;-66
2023/04/30 11:06:07;;;;;;;4.20;3.80;;;;;;;18.02;64.57;102114.34;4964782;28;20054;-66
2023/04/30 11:08:34;;;;;;;6.15;5.55;;;;;;;18.10;61.49;102113.66;4966352;28;20092;-67
2023/04/30 11:11:04;;;;;;;4.22;3.83;;;;;;;18.09;61.79;102108.38;4962958;28;20455;-66
2023/04/30 11:13:43;;;;;;;4.65;4.15;;;;;;;18.23;61.75;102103.44;4966116;28;20030;-67
2023/04/30 11:16:08;;;;;;;4.35;3.95;;;;;;;17.92;59.53;102108.88;4966184;28;20038;-67